createdAt,value
2023-03-26T00:00:57.594Z,41.51
2023-03-26T00:03:35.164Z,41.97
2023-03-26T00:06:17.132Z,42.36
2023-03-26T00:08:54.048Z,42.35
2023-03-26T00:11:27.252Z,41.92
2023-03-26T00:14:02.085Z,42.00
2023-03-26T00:16:33.735Z,41.83
2023-03-26T00:19:05.147Z,41.76
2023-03-26T00:22:02.232Z,42.48
2023-03-26T00:24:33.365Z,43.02
2023-03-26T00:28:30.921Z,43.55
2023-03-26T00:31:24.921Z,43.06
2023-03-26T00:37:10.202Z,42.16
2023-03-26T00:39:44.845Z,41.53
2023-03-26T00:42:21.440Z,42.23
2023-03-26T00:45:01.296Z,41.30
2023-03-26T00:47:36.986Z,42.62
2023-03-26T00:50:20.559Z,42.27
2023-03-26T00:53:05.508Z,41.22
2023-03-26T00:55:37.656Z,41.22
2023-03-26T00:58:13.607Z,42.52
2023-03-26T01:00:46.949Z,43.13
2023-03-26T01:03:27.629Z,41.86
2023-03-26T01:06:08.878Z,41.53
2023-03-26T01:08:48.430Z,41.55
2023-03-26T01:11:25.522Z,41.30
2023-03-26T01:14:24.985Z,41.61
2023-03-26T01:17:09.556Z,41.31
2023-03-26T01:20:09.682Z,41.58
2023-03-26T01:22:55.510Z,43.14
2023-03-26T01:25:39.317Z,41.72
2023-03-26T01:28:15.408Z,41.39
2023-03-26T01:31:06.568Z,42.62
2023-03-26T01:34:43.004Z,43.08
2023-03-26T01:37:48.966Z,42.97
2023-03-26T01:40:52.206Z,41.75
2023-03-26T01:48:18.660Z,42.35
2023-03-26T01:57:27.575Z,42.23
2023-03-26T02:20:19.928Z,42.14
2023-03-26T02:22:52.285Z,42.06
2023-03-26T02:25:25.714Z,43.18
2023-03-26T02:28:07.751Z,41.98
2023-03-26T02:30:40.756Z,42.49
2023-03-26T02:33:16.714Z,41.99
2023-03-26T02:35:49.754Z,41.88
2023-03-26T02:38:33.368Z,42.32
2023-03-26T02:41:20.237Z,42.20
2023-03-26T02:44:07.627Z,42.03
2023-03-26T02:47:08.079Z,42.29
2023-03-26T02:50:05.626Z,42.48
2023-03-26T02:53:07.870Z,42.07
2023-03-26T02:55:45.720Z,41.94
2023-03-26T02:58:32.542Z,41.85
2023-03-26T03:01:07.862Z,41.67
2023-03-26T03:03:53.458Z,41.87
2023-03-26T03:07:02.706Z,42.40
2023-03-26T03:09:42.767Z,42.80
2023-03-26T03:12:42.732Z,43.56
2023-03-26T03:15:15.654Z,42.79
2023-03-26T03:17:46.988Z,42.55
2023-03-26T03:20:20.403Z,42.44
2023-03-26T03:22:54.429Z,42.35
2023-03-26T03:25:29.815Z,42.53
2023-03-26T03:28:32.757Z,42.17
2023-03-26T03:31:11.540Z,41.79
2023-03-26T03:33:44.654Z,41.80
2023-03-26T03:36:24.968Z,43.51
2023-03-26T03:39:06.254Z,42.59
2023-03-26T03:41:41.205Z,42.25
2023-03-26T03:44:20.793Z,42.07
2023-03-26T03:47:07.037Z,42.31
2023-03-26T03:49:41.299Z,42.45
2023-03-26T03:52:12.870Z,44.04
2023-03-26T03:54:47.438Z,42.99
2023-03-26T03:57:28.291Z,42.66
2023-03-26T04:00:17.882Z,42.44
2023-03-26T04:03:34.646Z,42.90
2023-03-26T04:06:16.644Z,43.08
2023-03-26T04:08:53.396Z,42.31
2023-03-26T04:11:26.539Z,42.29
2023-03-26T04:14:25.153Z,42.52
2023-03-26T04:17:09.448Z,42.43
2023-03-26T04:20:08.300Z,42.38
2023-03-26T04:22:44.729Z,43.35
2023-03-26T04:34:52.010Z,42.75
2023-03-26T04:38:21.040Z,42.43
2023-03-26T04:40:55.612Z,42.10
2023-03-26T04:43:48.714Z,42.03
2023-03-26T04:46:44.006Z,42.14
2023-03-26T04:49:27.237Z,42.41
2023-03-26T04:52:04.568Z,42.37
2023-03-26T04:55:55.648Z,42.89
2023-03-26T04:58:53.168Z,42.68
2023-03-26T05:01:32.705Z,42.47
2023-03-26T05:04:07.151Z,42.42
2023-03-26T05:06:43.364Z,42.35
2023-03-26T05:09:36.731Z,42.31
2023-03-26T05:12:40.173Z,42.35
2023-03-26T05:15:19.833Z,42.34
2023-03-26T05:18:11.652Z,42.12
2023-03-26T05:20:50.432Z,42.07
2023-03-26T05:23:23.495Z,42.53
2023-03-26T05:26:13.457Z,42.12
2023-03-26T05:28:47.952Z,42.09
2023-03-26T05:31:32.012Z,42.62
2023-03-26T05:34:08.697Z,42.04
2023-03-26T05:36:45.068Z,41.54
2023-03-26T05:39:49.618Z,41.55
2023-03-26T05:42:58.036Z,41.38
2023-03-26T05:45:53.755Z,41.43
2023-03-26T05:48:44.431Z,41.24
2023-03-26T05:51:17.012Z,41.11
2023-03-26T05:54:05.819Z,41.31
2023-03-26T05:57:01.617Z,41.14
2023-03-26T05:59:56.146Z,41.01
2023-03-26T06:02:51.020Z,40.98
2023-03-26T06:06:19.671Z,41.38
2023-03-26T06:09:09.154Z,40.95
2023-03-26T06:11:44.858Z,40.68
2023-03-26T06:14:19.091Z,40.64
2023-03-26T06:17:19.989Z,40.93
2023-03-26T06:20:18.603Z,40.63
2023-03-26T06:22:51.871Z,40.67
2023-03-26T06:25:28.231Z,41.87
2023-03-26T06:28:19.688Z,40.74
2023-03-26T06:31:12.118Z,40.68
2023-03-26T06:33:48.981Z,40.59
2023-03-26T06:36:23.245Z,40.34
2023-03-26T06:38:55.621Z,40.95
2023-03-26T06:41:28.071Z,40.42
2023-03-26T06:44:13.833Z,40.43
2023-03-26T06:47:15.507Z,40.94
2023-03-26T06:50:05.752Z,40.87
2023-03-26T06:52:45.564Z,40.74
2023-03-26T06:55:40.394Z,40.73
2023-03-26T06:58:34.446Z,40.69
2023-03-26T07:01:24.440Z,40.67
2023-03-26T07:04:44.212Z,40.82
2023-03-26T07:07:37.317Z,40.84
2023-03-26T07:10:37.743Z,42.18
2023-03-26T07:13:41.982Z,42.29
2023-03-26T07:16:35.917Z,42.27
2023-03-26T07:19:27.897Z,41.91
2023-03-26T07:22:05.491Z,42.18
2023-03-26T07:25:12.202Z,42.34
2023-03-26T07:28:32.338Z,41.96
2023-03-26T07:31:45.525Z,41.11
2023-03-26T07:35:08.404Z,41.62
2023-03-26T07:39:09.074Z,42.04
2023-03-26T07:42:57.331Z,42.24
2023-03-26T07:45:49.125Z,42.02
2023-03-26T07:48:48.976Z,41.62
2023-03-26T07:51:49.678Z,41.65
2023-03-26T07:54:44.143Z,41.46
2023-03-26T07:58:25.028Z,41.88
2023-03-26T08:01:55.518Z,41.09
2023-03-26T08:05:24.274Z,40.66
2023-03-26T08:08:19.260Z,40.46
2023-03-26T08:11:21.560Z,40.51
2023-03-26T08:14:17.264Z,40.56
2023-03-26T08:16:57.958Z,39.94
2023-03-26T08:20:04.079Z,40.41
2023-03-26T08:22:53.500Z,39.94
2023-03-26T08:25:38.184Z,39.91
2023-03-26T08:28:26.074Z,39.84
2023-03-26T08:31:04.578Z,39.95
2023-03-26T08:33:37.778Z,39.76
2023-03-26T08:36:16.948Z,39.80
2023-03-26T08:38:53.088Z,39.95
2023-03-26T08:41:55.709Z,39.89
2023-03-26T08:44:35.373Z,39.90
2023-03-26T08:47:40.342Z,39.86
2023-03-26T08:50:47.477Z,39.96
2023-03-26T08:53:46.525Z,39.86
2023-03-26T08:56:45.852Z,39.77
2023-03-26T08:59:32.826Z,39.63
2023-03-26T09:02:43.297Z,39.76
2023-03-26T09:05:51.654Z,39.70
2023-03-26T09:09:04.158Z,39.68
2023-03-26T09:12:04.932Z,39.50
2023-03-26T09:14:53.315Z,39.20
2023-03-26T09:17:49.526Z,39.06
2023-03-26T09:20:23.380Z,39.10
2023-03-26T09:23:37.537Z,39.10
2023-03-26T09:26:44.613Z,39.10
2023-03-26T09:29:27.213Z,39.02
2023-03-26T09:32:48.010Z,39.10
2023-03-26T09:35:51.462Z,38.90
2023-03-26T09:38:51.638Z,38.85
2023-03-26T09:41:47.758Z,38.70
2023-03-26T09:45:11.076Z,38.89
2023-03-26T09:48:12.208Z,38.69
2023-03-26T09:51:09.731Z,38.60
2023-03-26T09:54:09.142Z,38.58
2023-03-26T09:57:06.004Z,38.55
2023-03-26T10:00:08.776Z,38.65
2023-03-26T10:03:12.336Z,38.53
2023-03-26T10:06:15.784Z,38.51
2023-03-26T10:09:06.291Z,38.35
2023-03-26T10:11:55.857Z,38.33
2023-03-26T10:14:47.753Z,38.16
2023-03-26T10:18:27.728Z,38.35
2023-03-26T10:21:22.796Z,38.25
2023-03-26T10:24:13.869Z,39.00
2023-03-26T10:27:24.836Z,38.29
2023-03-26T10:30:44.223Z,39.42
2023-03-26T10:33:36.648Z,38.30
2023-03-26T10:36:33.160Z,37.93
2023-03-26T10:39:53.206Z,37.85
2023-03-26T10:43:09.343Z,38.45
2023-03-26T10:46:17.953Z,37.90
2023-03-26T10:49:40.830Z,38.18
2023-03-26T10:52:27.993Z,38.83
2023-03-26T10:55:19.802Z,37.55
2023-03-26T10:58:02.945Z,37.26
2023-03-26T11:00:45.222Z,37.30
2023-03-26T11:03:41.079Z,37.41
2023-03-26T11:06:39.091Z,37.47
2023-03-26T11:09:25.379Z,37.41
2023-03-26T11:12:26.897Z,37.51
2023-03-26T11:16:04.609Z,37.58
2023-03-26T11:18:55.704Z,37.54
2023-03-26T11:21:35.756Z,37.36
2023-03-26T11:24:41.175Z,37.24
2023-03-26T11:28:08.961Z,37.50
2023-03-26T11:31:38.418Z,37.49
2023-03-26T11:34:17.140Z,37.13
2023-03-26T11:36:53.220Z,36.92
2023-03-26T11:39:32.904Z,36.80
2023-03-26T11:42:15.966Z,36.86
2023-03-26T11:44:57.973Z,36.94
2023-03-26T11:47:52.769Z,37.25
2023-03-26T11:50:37.389Z,37.16
2023-03-26T11:53:23.480Z,38.52
2023-03-26T11:56:31.522Z,39.07
2023-03-26T11:59:08.633Z,37.73
2023-03-26T12:01:55.080Z,37.58
2023-03-26T12:04:48.468Z,38.16
2023-03-26T12:07:33.910Z,37.78
2023-03-26T12:10:19.521Z,37.85
2023-03-26T12:12:48.697Z,39.24
2023-03-26T12:15:34.028Z,39.04
2023-03-26T12:18:25.634Z,38.58
2023-03-26T12:21:19.746Z,38.52
2023-03-26T12:24:07.385Z,38.52
2023-03-26T12:26:43.819Z,38.52
2023-03-26T12:29:19.153Z,39.45
2023-03-26T12:31:59.575Z,39.77
2023-03-26T12:34:44.120Z,40.13
2023-03-26T12:37:48.684Z,40.43
2023-03-26T12:40:44.463Z,40.60
2023-03-26T12:44:56.530Z,40.40
2023-03-26T12:47:58.374Z,40.55
2023-03-26T12:49:35.396Z,40.48
2023-03-26T12:52:34.221Z,40.48
2023-03-26T12:55:36.072Z,40.49
2023-03-26T12:58:48.823Z,40.49
2023-03-26T13:01:35.925Z,40.46
2023-03-26T13:04:37.627Z,40.58
2023-03-26T13:07:33.460Z,40.68
2023-03-26T13:10:34.565Z,40.62
2023-03-26T13:13:42.948Z,40.70
2023-03-26T13:16:17.848Z,40.57
2023-03-26T13:19:04.893Z,40.42
2023-03-26T13:21:51.219Z,40.12
2023-03-26T13:24:37.513Z,40.07
2023-03-26T13:27:29.507Z,40.01
2023-03-26T13:30:23.527Z,39.99
2023-03-26T13:33:10.472Z,40.07
2023-03-26T13:36:23.922Z,40.31
2023-03-26T13:39:11.758Z,40.32
2023-03-26T13:41:57.541Z,40.28
2023-03-26T13:45:04.318Z,40.01
2023-03-26T13:47:49.705Z,39.95
2023-03-26T13:50:29.949Z,39.85
2023-03-26T13:53:07.933Z,40.44
2023-03-26T13:55:57.615Z,40.47
2023-03-26T13:58:57.608Z,39.90
2023-03-26T14:01:51.131Z,39.79
2023-03-26T14:04:45.642Z,39.84
2023-03-26T14:07:33.299Z,39.58
2023-03-26T14:10:15.826Z,39.60
2023-03-26T14:13:17.859Z,40.30
2023-03-26T14:16:00.025Z,40.67
2023-03-26T14:19:07.594Z,40.83
2023-03-26T14:21:55.388Z,40.82
2023-03-26T14:25:01.557Z,40.85
2023-03-26T14:28:07.327Z,41.26
2023-03-26T14:31:09.712Z,40.93
2023-03-26T14:33:57.959Z,41.23
2023-03-26T14:36:33.591Z,41.27
2023-03-26T14:39:29.682Z,41.71
2023-03-26T14:42:21.465Z,41.76
2023-03-26T14:45:05.694Z,41.60
2023-03-26T14:48:06.706Z,41.93
2023-03-26T14:51:21.071Z,42.24
2023-03-26T14:54:05.396Z,41.93
2023-03-26T15:00:47.690Z,42.32
2023-03-26T15:04:07.020Z,41.53
2023-03-26T15:07:09.417Z,41.71
2023-03-26T15:10:09.624Z,41.55
2023-03-26T15:13:08.434Z,40.69
2023-03-26T15:16:36.121Z,40.43
2023-03-26T15:19:43.506Z,40.59
2023-03-26T15:22:52.603Z,41.61
2023-03-26T15:26:05.824Z,40.62
2023-03-26T15:29:15.752Z,40.59
2023-03-26T15:32:03.843Z,41.78
2023-03-26T15:35:03.572Z,40.77
2023-03-26T15:37:55.742Z,40.42
2023-03-26T15:40:27.668Z,40.28
2023-03-26T15:43:14.150Z,40.32
2023-03-26T15:46:20.316Z,40.35
2023-03-26T15:49:13.716Z,40.48
2023-03-26T15:52:19.562Z,40.73
2023-03-26T15:55:08.777Z,40.56
2023-03-26T15:58:05.229Z,40.64
2023-03-26T16:01:21.007Z,40.93
2023-03-26T16:04:21.665Z,41.32
2023-03-26T16:08:17.983Z,41.14
2023-03-26T16:12:04.531Z,41.38
2023-03-26T16:14:51.245Z,41.01
2023-03-26T16:17:25.268Z,40.89
2023-03-26T16:21:30.884Z,41.33
2023-03-26T16:25:47.444Z,41.61
2023-03-26T16:29:33.179Z,41.68
2023-03-26T16:32:44.011Z,41.51
2023-03-26T16:35:53.394Z,41.63
2023-03-26T16:48:21.702Z,43.89
2023-03-26T16:51:33.418Z,43.69
2023-03-26T16:54:33.254Z,43.51
2023-03-26T16:57:29.997Z,43.29
2023-03-26T17:00:56.522Z,43.41
2023-03-26T17:04:48.548Z,43.68
2023-03-26T17:08:07.961Z,44.07
2023-03-26T17:11:08.620Z,44.06
2023-03-26T17:14:09.518Z,43.99
2023-03-26T17:17:27.667Z,43.15
2023-03-26T17:21:45.804Z,43.24
2023-03-26T17:29:51.829Z,44.35
2023-03-26T17:33:02.863Z,43.72
2023-03-26T17:36:33.014Z,43.29
2023-03-26T17:40:26.791Z,43.64
2023-03-26T17:43:41.132Z,43.57
2023-03-26T17:46:39.519Z,43.52
2023-03-26T17:49:34.048Z,43.65
2023-03-26T17:52:22.082Z,43.87
2023-03-26T17:54:57.590Z,43.79
2023-03-26T17:57:52.136Z,43.87
2023-03-26T18:06:41.675Z,45.34
2023-03-26T18:09:38.375Z,44.09
2023-03-26T18:12:34.458Z,43.90
2023-03-26T18:15:52.899Z,44.21
2023-03-26T18:19:24.850Z,44.38
2023-03-26T18:23:05.759Z,44.46
2023-03-26T18:31:30.119Z,44.82
2023-03-26T18:39:21.599Z,44.83
2023-03-26T18:42:38.136Z,44.90
2023-03-26T18:45:47.339Z,44.71
2023-03-26T18:57:40.641Z,45.54
2023-03-26T19:00:33.085Z,45.30
2023-03-26T19:03:13.021Z,44.82
2023-03-26T19:05:52.290Z,44.23
2023-03-26T19:08:50.278Z,44.33
2023-03-26T19:11:24.804Z,44.19
2023-03-26T19:14:34.002Z,44.14
2023-03-26T19:17:09.546Z,44.31
2023-03-26T19:19:52.476Z,44.32
2023-03-26T19:22:32.125Z,44.43
2023-03-26T19:25:13.156Z,44.43
2023-03-26T19:27:51.889Z,44.45
2023-03-26T19:30:45.333Z,44.72
2023-03-26T19:33:24.045Z,44.59
2023-03-26T19:36:24.210Z,44.72
2023-03-26T19:38:57.179Z,44.56
2023-03-26T19:41:37.333Z,44.55
2023-03-26T19:44:34.449Z,44.89
2023-03-26T19:48:46.334Z,45.21
2023-03-26T19:51:40.154Z,45.82
2023-03-26T19:54:17.759Z,45.09
2023-03-26T19:56:49.459Z,44.74
2023-03-26T19:59:20.516Z,44.75
2023-03-26T20:01:49.938Z,44.74
2023-03-26T20:04:24.961Z,46.49
2023-03-26T20:06:55.764Z,45.43
2023-03-26T20:09:27.504Z,45.01
2023-03-26T20:12:13.431Z,44.84
2023-03-26T20:14:47.572Z,46.37
2023-03-26T20:17:21.359Z,45.90
2023-03-26T20:19:53.096Z,45.54
2023-03-26T20:22:30.155Z,45.23
2023-03-26T20:25:04.421Z,45.21
2023-03-26T20:27:46.031Z,45.42
2023-03-26T20:30:37.268Z,45.43
2023-03-26T20:33:31.637Z,45.66
2023-03-26T20:36:33.420Z,45.85
2023-03-26T20:39:29.662Z,45.57
2023-03-26T20:42:59.983Z,45.31
2023-03-26T20:46:31.662Z,45.24
2023-03-26T20:49:15.252Z,45.39
2023-03-26T20:52:01.077Z,44.81
2023-03-26T20:54:38.097Z,44.71
2023-03-26T20:57:25.080Z,44.71
2023-03-26T21:04:05.793Z,46.45
2023-03-26T21:07:17.218Z,46.48
2023-03-26T21:10:33.800Z,45.49
2023-03-26T21:13:53.687Z,45.70
2023-03-26T21:16:49.145Z,45.33
2023-03-26T21:19:37.659Z,45.04
2023-03-26T21:22:54.491Z,44.87
2023-03-26T21:26:48.870Z,46.00
2023-03-26T21:29:50.201Z,45.08
2023-03-26T21:32:50.585Z,44.96
2023-03-26T21:36:05.165Z,44.97
2023-03-26T21:39:21.023Z,44.97
2023-03-26T21:42:26.071Z,44.89
2023-03-26T21:45:19.148Z,44.75
2023-03-26T21:48:24.176Z,44.86
2023-03-26T21:51:10.228Z,44.94
2023-03-26T21:54:13.228Z,44.89
2023-03-26T21:57:10.257Z,45.63
2023-03-26T21:59:53.629Z,44.93
2023-03-26T22:03:12.860Z,45.29
2023-03-26T22:06:36.468Z,44.91
2023-03-26T22:09:49.023Z,45.34
2023-03-26T22:12:41.803Z,44.72
2023-03-26T22:15:56.197Z,44.89
2023-03-26T22:18:57.342Z,45.38
2023-03-26T22:21:42.125Z,45.69
2023-03-26T22:24:37.451Z,46.24
2023-03-26T22:27:30.792Z,45.56
2023-03-26T22:30:12.877Z,44.70
2023-03-26T22:33:09.798Z,44.58
2023-03-26T22:36:22.227Z,44.61
2023-03-26T22:39:59.401Z,45.47
2023-03-26T22:42:59.368Z,45.28
2023-03-26T22:45:57.395Z,44.89
2023-03-26T22:48:55.975Z,44.91
2023-03-26T22:54:53.106Z,44.46
2023-03-26T22:57:45.141Z,44.75
2023-03-26T23:01:17.373Z,44.82
2023-03-26T23:04:49.206Z,44.44
2023-03-26T23:08:02.410Z,44.28
2023-03-26T23:11:13.909Z,44.69
2023-03-26T23:18:09.988Z,44.39
2023-03-26T23:21:22.318Z,44.56
2023-03-26T23:24:25.065Z,44.49
2023-03-26T23:27:27.252Z,44.55
2023-03-26T23:30:47.825Z,44.96
2023-03-26T23:33:54.078Z,44.67
2023-03-26T23:36:49.306Z,44.32
2023-03-26T23:39:49.871Z,43.57
2023-03-26T23:42:28.399Z,43.21
2023-03-26T23:45:08.179Z,43.03
2023-03-26T23:47:47.335Z,43.19
2023-03-26T23:50:20.265Z,42.73
2023-03-26T23:52:54.448Z,42.55
2023-03-26T23:55:26.000Z,42.35
2023-03-26T23:58:03.690Z,42.90
